Adamovichi, Belarus

8:58 AM +03 on August 20, 2017 (GMT +0300)
Minsk-2 | | Change Station

Elev 768 ft 53.87 °N, 27.53 °E | Updated 28 minutes ago

Overcast
Overcast
66 °F
Feels Like 66 °F
N
4
Wind Variable Wind from ENE

Today
High -- | Low -- °F
--% Chance of Precip.
Yesterday
High -- | Low -- °F
Precip. -- in
Pressure 30.04 in
Visibility -9999.0 miles
Clouds
Dew Point 63 °F
Humidity 88%
Rainfall 0.00 in
Snow Depth Not available.
5:58 AM 8:31 PM
Waning Crescent, 3% visible
METAR UMMS 200530Z 06002MPS 030V110 CAVOK 19/17 Q1017 R13/CLRD// NOSIG
Pressure 30.04 in
Visibility -9999.0 miles
Clouds
Dew Point 63 °F
Humidity 88%
Rainfall 0.00 in
Snow Depth Not available.
5:58 AM 8:31 PM
Waning Crescent, 3% visible
METAR UMMS 200530Z 06002MPS 030V110 CAVOK 19/17 Q1017 R13/CLRD// NOSIG

Get Severe Weather Alerts

Thanks for signing up!

Be on the lookout for a verification email in your inbox.

You'll start receiving the daily forecast at 6 AM.

×

10-Day Weather Forecast

×

Almanac

Astronomy

Aug. 20, 2017 Rise Set
Actual Time
Civil Twilight
Nautical Twilight
Astronomical Twilight
Moon
Length of Visible Light
Length of Day
Tomorrow will be .
, % of the Moon is Illuminated

Today's Extremes

Country Highs Country Lows

Community

WunderPhotos

Category 6

Welcome to Category 6. This is the collective home for Weather Underground's featured writeups by Dr. Jeff Masters (right), Bob Henson (left), Chris Burt, and other regular contributors.

Nearby

Air Quality

  Air Quality AQ Index Pollutant
Not available.

Snow Depth

Station Depth Elevation

Earthquake Activity

City Distance Mag. Time & Date
Minimum magnitude displayed is 2.5.

Coastal Water Temperatures

Place Temperature

Stations

Nearby Weather Stations

Station Location Temp. Windchill Dew Point Humidity Wind Precip. Elev Updated Type